Schedule Details


Flight Number: CTN418
Departure: Cilipi (LDDU) at 15:55
Arrival: Frankfurt/main (EDDF) at 18:00
Route: AMUGO UL611 UVODI UL862 SABAD DCT PIKIT DCT SUBEN UQ162 PSA

Weather Information
LDDU 171130Z 29007KT CAVOK 22/12 Q1018 NOSIG
EDDF 171120Z 08005KT 020V120 9999 FEW040 21/10 Q1019 NOSIG
Schedule Frequency

Route Map